createdAt,value
2023-03-06T00:07:45.660Z,16.25
2023-03-06T00:17:47.581Z,15.93
2023-03-06T00:27:50.136Z,13.40
2023-03-06T00:37:52.224Z,12.95
2023-03-06T00:47:53.981Z,18.10
2023-03-06T00:57:55.773Z,14.18
2023-03-06T01:07:57.812Z,21.15
2023-03-06T01:18:01.802Z,17.10
2023-03-06T01:28:03.766Z,14.93
2023-03-06T01:38:05.661Z,15.85
2023-03-06T01:48:07.482Z,21.50
2023-03-06T01:58:15.148Z,15.98
2023-03-06T02:08:19.658Z,16.90
2023-03-06T02:18:21.641Z,16.95
2023-03-06T02:28:25.599Z,15.75
2023-03-06T02:38:40.207Z,14.65
2023-03-06T02:48:42.076Z,17.50
2023-03-06T02:58:44.180Z,17.15
2023-03-06T03:08:46.301Z,15.38
2023-03-06T03:18:49.738Z,20.20
2023-03-06T03:28:52.919Z,16.52
2023-03-06T03:38:56.444Z,20.40
2023-03-06T03:48:58.774Z,20.45
2023-03-06T03:59:01.717Z,25.38
2023-03-06T04:09:09.886Z,35.28
2023-03-06T04:19:12.898Z,29.77
2023-03-06T04:29:15.280Z,30.35
2023-03-06T04:39:17.346Z,28.52
2023-03-06T04:49:19.438Z,25.13
2023-03-06T04:59:21.328Z,22.52
2023-03-06T05:09:23.593Z,24.13
2023-03-06T05:19:27.695Z,24.25
2023-03-06T05:29:49.537Z,23.17
2023-03-06T05:39:51.469Z,15.82
2023-03-06T05:49:53.256Z,13.52
2023-03-06T05:59:55.167Z,16.00
2023-03-06T06:09:57.101Z,14.80
2023-03-06T06:19:59.060Z,10.75
2023-03-06T06:30:00.892Z,11.45
2023-03-06T06:40:02.673Z,11.48
2023-03-06T06:50:05.093Z,11.82
2023-03-06T07:00:08.752Z,12.75
2023-03-06T07:10:15.540Z,15.90
2023-03-06T07:20:17.861Z,30.63
2023-03-06T07:30:20.771Z,19.08
2023-03-06T07:40:24.144Z,12.55
2023-03-06T07:50:26.218Z,12.48
2023-03-06T08:00:28.156Z,13.02
2023-03-06T08:10:30.133Z,11.65
2023-03-06T08:20:32.016Z,11.73
2023-03-06T08:30:33.815Z,11.75
2023-03-06T08:40:35.638Z,7.13
2023-03-06T08:50:37.472Z,7.82
2023-03-06T09:00:39.468Z,7.25
2023-03-06T09:10:45.345Z,8.30
2023-03-06T09:20:47.147Z,7.03
2023-03-06T09:30:48.993Z,8.57
2023-03-06T09:41:28.217Z,6.80
2023-03-06T09:51:54.294Z,5.82
2023-03-06T10:02:19.680Z,9.02
2023-03-06T10:12:27.782Z,4.35
2023-03-06T10:22:34.148Z,3.60
2023-03-06T10:32:55.713Z,5.20
2023-03-06T10:43:10.868Z,5.82
2023-03-06T10:53:22.317Z,3.53
2023-03-06T11:03:24.661Z,2.90
2023-03-06T11:13:28.707Z,3.03
2023-03-06T11:23:45.395Z,2.90
2023-03-06T11:33:54.943Z,2.80
2023-03-06T11:44:20.406Z,3.58
2023-03-06T11:54:23.178Z,2.97
2023-03-06T12:04:37.161Z,4.00
2023-03-06T12:15:03.521Z,5.47
2023-03-06T12:25:32.920Z,5.43
2023-03-06T12:36:02.491Z,3.30
2023-03-06T12:46:21.295Z,3.80
2023-03-06T12:56:23.513Z,2.65
2023-03-06T13:06:59.779Z,9.13
2023-03-06T13:17:26.924Z,3.30
2023-03-06T13:28:02.785Z,5.05
2023-03-06T13:49:14.640Z,4.72
2023-03-06T14:00:03.054Z,4.72
2023-03-06T14:10:23.904Z,8.57
2023-03-06T14:20:48.064Z,4.43
2023-03-06T14:30:51.584Z,5.47
2023-03-06T14:40:53.645Z,4.93
2023-03-06T14:50:56.837Z,5.70
2023-03-06T15:01:03.244Z,7.20
2023-03-06T15:11:07.083Z,4.85
2023-03-06T15:21:21.891Z,9.77
2023-03-06T15:31:26.632Z,7.53
2023-03-06T15:41:38.819Z,8.15
2023-03-06T15:51:41.044Z,6.32
2023-03-06T16:01:42.920Z,6.38
2023-03-06T16:11:45.133Z,8.88
2023-03-06T16:21:47.054Z,11.10
2023-03-06T16:31:49.236Z,12.18
2023-03-06T16:41:51.501Z,13.93
2023-03-06T16:51:54.188Z,19.30
2023-03-06T17:01:57.744Z,15.02
2023-03-06T17:11:59.875Z,15.23
2023-03-06T17:22:01.707Z,16.98
2023-03-06T17:32:03.766Z,24.98
2023-03-06T17:42:06.515Z,26.23
2023-03-06T17:52:08.345Z,14.90
2023-03-06T18:02:11.204Z,20.05
2023-03-06T18:12:12.985Z,14.38
2023-03-06T18:22:15.280Z,12.35
2023-03-06T18:32:17.186Z,16.95
2023-03-06T18:42:19.037Z,19.02
2023-03-06T18:52:20.889Z,13.52
2023-03-06T19:02:22.781Z,15.60
2023-03-06T19:12:24.611Z,15.57
2023-03-06T19:22:26.443Z,15.18
2023-03-06T19:32:28.281Z,14.60
2023-03-06T19:42:31.123Z,11.88
2023-03-06T19:52:36.298Z,14.25
2023-03-06T20:02:38.166Z,13.13
2023-03-06T20:12:40.142Z,15.40
2023-03-06T20:22:41.964Z,16.67
2023-03-06T20:32:43.887Z,21.13
2023-03-06T20:42:45.701Z,38.85
2023-03-06T20:52:47.840Z,28.33
2023-03-06T21:02:49.695Z,20.90
2023-03-06T21:12:54.787Z,16.10
2023-03-06T21:22:56.681Z,29.40
2023-03-06T21:32:58.575Z,65.57
2023-03-06T21:43:00.886Z,49.08
2023-03-06T21:53:02.803Z,28.98
2023-03-06T22:03:05.247Z,29.23
2023-03-06T22:13:07.068Z,32.70
2023-03-06T22:23:08.883Z,23.35
2023-03-06T22:33:10.689Z,29.08
2023-03-06T22:43:12.453Z,23.48
2023-03-06T22:53:14.377Z,22.30
2023-03-06T23:03:16.365Z,25.95
2023-03-06T23:13:18.124Z,26.80
2023-03-06T23:23:39.285Z,34.50
2023-03-06T23:33:42.353Z,35.28
2023-03-06T23:43:45.070Z,24.42
2023-03-06T23:53:48.355Z,18.63
